createdAt,value
2019-05-19T00:00:04.396Z,14.45
2019-05-19T00:01:04.417Z,14.41
2019-05-19T00:02:04.452Z,14.41
2019-05-19T00:03:04.491Z,14.37
2019-05-19T00:04:04.521Z,14.40
2019-05-19T00:05:04.557Z,14.40
2019-05-19T00:06:04.589Z,14.31
2019-05-19T00:07:04.649Z,14.25
2019-05-19T00:08:04.717Z,14.36
2019-05-19T00:09:04.698Z,14.20
2019-05-19T00:10:04.769Z,14.28
2019-05-19T00:11:04.765Z,14.19
2019-05-19T00:12:04.801Z,14.12
2019-05-19T00:13:04.835Z,14.15
2019-05-19T00:14:04.868Z,14.15
2019-05-19T00:15:04.903Z,14.05
2019-05-19T00:16:04.936Z,14.08
2019-05-19T00:17:04.973Z,14.07
2019-05-19T00:18:05.012Z,14.11
2019-05-19T00:19:05.038Z,14.04
2019-05-19T00:20:05.075Z,13.98
2019-05-19T00:21:05.108Z,13.87
2019-05-19T00:22:05.141Z,13.98
2019-05-19T00:23:05.180Z,13.94
2019-05-19T00:24:05.210Z,13.94
2019-05-19T00:25:05.252Z,13.83
2019-05-19T00:26:05.280Z,13.80
2019-05-19T00:27:05.314Z,13.86
2019-05-19T00:28:05.352Z,13.94
2019-05-19T00:29:05.383Z,13.82
2019-05-19T00:30:05.417Z,13.76
2019-05-19T00:31:05.455Z,13.75
2019-05-19T00:32:05.492Z,13.68
2019-05-19T00:33:05.521Z,13.65
2019-05-19T00:34:05.556Z,13.65
2019-05-19T00:35:05.592Z,13.50
2019-05-19T00:36:05.623Z,13.52
2019-05-19T00:37:05.658Z,13.54
2019-05-19T00:38:05.699Z,13.54
2019-05-19T00:39:05.728Z,13.55
2019-05-19T00:40:05.823Z,13.45
2019-05-19T00:41:05.800Z,13.55
2019-05-19T00:42:05.828Z,13.52
2019-05-19T00:43:05.881Z,13.47
2019-05-19T00:44:05.897Z,13.40
2019-05-19T00:45:05.934Z,13.39
2019-05-19T00:46:05.968Z,13.37
2019-05-19T00:47:06.000Z,13.24
2019-05-19T00:48:06.033Z,13.40
2019-05-19T00:49:06.068Z,13.33
2019-05-19T00:50:06.103Z,13.45
2019-05-19T00:51:06.143Z,13.33
2019-05-19T00:52:06.170Z,13.31
2019-05-19T00:53:06.205Z,13.28
2019-05-19T00:54:06.237Z,13.28
2019-05-19T00:55:06.273Z,13.26
2019-05-19T00:56:06.345Z,13.23
2019-05-19T00:57:06.338Z,13.23
2019-05-19T00:58:06.374Z,13.26
2019-05-19T00:59:06.407Z,13.21
2019-05-19T01:00:06.440Z,13.17
2019-05-19T01:01:06.474Z,13.19
2019-05-19T01:02:06.510Z,13.13
2019-05-19T01:03:06.542Z,13.16
2019-05-19T01:04:06.595Z,13.05
2019-05-19T01:05:06.609Z,13.02
2019-05-19T01:06:06.642Z,12.99
2019-05-19T01:07:06.686Z,13.05
2019-05-19T01:08:06.709Z,13.03
2019-05-19T01:09:06.744Z,13.16
2019-05-19T01:10:06.778Z,13.19
2019-05-19T01:11:06.810Z,13.16
2019-05-19T01:12:06.845Z,13.20
2019-05-19T01:13:06.880Z,13.03
2019-05-19T01:14:06.917Z,13.19
2019-05-19T01:15:06.945Z,13.13
2019-05-19T01:16:06.981Z,13.12
2019-05-19T01:17:07.012Z,13.20
2019-05-19T01:18:07.045Z,13.26
2019-05-19T01:19:07.080Z,13.23
2019-05-19T01:20:07.114Z,13.27
2019-05-19T01:21:07.147Z,13.28
2019-05-19T01:22:07.183Z,13.27
2019-05-19T01:23:07.215Z,13.19
2019-05-19T01:24:07.249Z,13.24
2019-05-19T01:25:07.338Z,13.23
2019-05-19T01:26:07.323Z,13.21
2019-05-19T01:27:07.349Z,13.24
2019-05-19T01:28:07.393Z,13.23
2019-05-19T01:29:07.422Z,13.23
2019-05-19T01:30:07.448Z,13.20
2019-05-19T01:31:07.485Z,13.17
2019-05-19T01:32:07.516Z,13.21
2019-05-19T01:33:07.551Z,13.19
2019-05-19T01:34:07.586Z,13.20
2019-05-19T01:35:07.620Z,13.23
2019-05-19T01:36:07.654Z,13.24
2019-05-19T01:37:07.686Z,13.30
2019-05-19T01:38:07.718Z,13.26
2019-05-19T01:39:07.755Z,13.17
2019-05-19T01:40:07.786Z,13.19
2019-05-19T01:41:07.818Z,13.19
2019-05-19T01:42:07.852Z,13.16
2019-05-19T01:43:07.886Z,13.16
2019-05-19T01:44:07.923Z,13.05
2019-05-19T01:45:07.953Z,13.21
2019-05-19T01:46:07.986Z,13.23
2019-05-19T01:47:08.020Z,13.39
2019-05-19T01:48:08.055Z,13.27
2019-05-19T01:49:08.086Z,13.33
2019-05-19T01:50:17.433Z,13.21
2019-05-19T01:51:08.155Z,13.17
2019-05-19T01:52:08.189Z,13.20
2019-05-19T01:53:08.229Z,13.27
2019-05-19T01:54:08.254Z,13.16
2019-05-19T01:55:08.291Z,13.19
2019-05-19T01:56:08.323Z,13.12
2019-05-19T01:57:08.363Z,13.19
2019-05-19T01:58:08.388Z,13.06
2019-05-19T01:59:08.425Z,13.02
2019-05-19T02:00:08.457Z,13.21
2019-05-19T02:01:08.490Z,13.37
2019-05-19T02:02:08.530Z,13.36
2019-05-19T02:03:08.557Z,13.33
2019-05-19T02:04:08.591Z,13.37
2019-05-19T02:05:08.639Z,13.33
2019-05-19T02:06:08.658Z,13.37
2019-05-19T02:07:08.691Z,13.40
2019-05-19T02:08:08.725Z,13.49
2019-05-19T02:09:08.762Z,13.65
2019-05-19T02:10:08.792Z,13.75
2019-05-19T02:11:08.830Z,13.91
2019-05-19T02:12:08.859Z,13.91
2019-05-19T02:13:08.895Z,13.94
2019-05-19T02:14:08.924Z,14.03
2019-05-19T02:15:08.957Z,14.04
2019-05-19T02:16:08.996Z,14.08
2019-05-19T02:17:09.028Z,14.12
2019-05-19T02:18:09.060Z,14.00
2019-05-19T02:19:09.094Z,13.97
2019-05-19T02:20:09.162Z,13.93
2019-05-19T02:21:09.162Z,13.93
2019-05-19T02:22:09.196Z,13.97
2019-05-19T02:23:09.228Z,13.91
2019-05-19T02:24:09.264Z,13.89
2019-05-19T02:25:09.295Z,13.82
2019-05-19T02:26:09.327Z,13.80
2019-05-19T02:27:09.362Z,13.76
2019-05-19T02:28:09.405Z,13.95
2019-05-19T02:29:09.432Z,13.87
2019-05-19T02:30:09.492Z,13.93
2019-05-19T02:31:09.500Z,13.86
2019-05-19T02:32:09.534Z,13.93
2019-05-19T02:33:09.575Z,13.86
2019-05-19T02:34:09.622Z,13.86
2019-05-19T02:35:09.634Z,13.83
2019-05-19T02:36:09.668Z,13.82
2019-05-19T02:37:09.708Z,13.82
2019-05-19T02:38:09.733Z,13.76
2019-05-19T02:39:09.769Z,13.71
2019-05-19T02:40:09.812Z,13.73
2019-05-19T02:41:09.837Z,13.78
2019-05-19T02:42:09.872Z,13.87
2019-05-19T02:43:09.904Z,13.93
2019-05-19T02:44:09.948Z,13.98
2019-05-19T02:45:09.972Z,13.94
2019-05-19T02:46:10.010Z,14.01
2019-05-19T02:47:10.047Z,13.93
2019-05-19T02:48:10.072Z,13.97
2019-05-19T02:49:10.120Z,13.93
2019-05-19T02:50:10.140Z,13.91
2019-05-19T02:51:10.177Z,13.79
2019-05-19T02:52:10.226Z,13.85
2019-05-19T02:53:10.244Z,13.93
2019-05-19T02:54:10.276Z,13.75
2019-05-19T02:55:10.310Z,13.80
2019-05-19T02:56:10.347Z,13.62
2019-05-19T02:57:10.380Z,13.67
2019-05-19T02:58:10.413Z,13.55
2019-05-19T02:59:10.446Z,13.45
2019-05-19T03:00:10.481Z,13.50
2019-05-19T03:01:10.515Z,13.45
2019-05-19T03:02:10.548Z,13.47
2019-05-19T03:03:10.582Z,13.42
2019-05-19T03:04:10.615Z,13.45
2019-05-19T03:05:10.656Z,13.43
2019-05-19T03:06:10.686Z,13.46
2019-05-19T03:07:10.719Z,13.42
2019-05-19T03:08:10.758Z,13.39
2019-05-19T03:09:10.790Z,13.40
2019-05-19T03:10:10.833Z,13.43
2019-05-19T03:11:10.855Z,13.40
2019-05-19T03:12:10.901Z,13.43
2019-05-19T03:13:10.923Z,13.39
2019-05-19T03:14:10.960Z,13.49
2019-05-19T03:15:10.997Z,13.42
2019-05-19T03:16:11.032Z,13.57
2019-05-19T03:17:11.064Z,13.55
2019-05-19T03:18:11.092Z,13.65
2019-05-19T03:19:11.129Z,13.70
2019-05-19T03:20:11.180Z,13.70
2019-05-19T03:21:12.136Z,13.73
2019-05-19T03:22:11.230Z,13.85
2019-05-19T03:23:11.266Z,13.76
2019-05-19T03:24:11.300Z,13.89
2019-05-19T03:25:11.338Z,13.86
2019-05-19T03:26:11.369Z,13.93
2019-05-19T03:27:11.403Z,13.94
2019-05-19T03:28:11.437Z,13.95
2019-05-19T03:29:11.486Z,14.03
2019-05-19T03:30:11.513Z,14.03
2019-05-19T03:31:11.542Z,14.04
2019-05-19T03:32:13.055Z,13.94
2019-05-19T03:33:11.648Z,13.89
2019-05-19T03:34:11.642Z,13.97
2019-05-19T03:35:11.682Z,13.95
2019-05-19T03:36:11.712Z,13.97
2019-05-19T03:37:11.748Z,14.00
2019-05-19T03:38:11.781Z,13.98
2019-05-19T03:39:11.821Z,14.01
2019-05-19T03:40:11.852Z,14.04
2019-05-19T03:41:11.888Z,14.04
2019-05-19T03:42:12.000Z,14.11
2019-05-19T03:43:11.953Z,14.22
2019-05-19T03:44:11.989Z,14.28
2019-05-19T03:45:12.023Z,14.25
2019-05-19T03:46:12.060Z,14.33
2019-05-19T03:47:12.093Z,14.38
2019-05-19T03:48:12.128Z,14.37
2019-05-19T03:49:12.171Z,14.49
2019-05-19T03:50:12.197Z,14.44
2019-05-19T03:51:29.381Z,14.43
2019-05-19T03:52:12.266Z,14.48
2019-05-19T03:53:12.301Z,14.44
2019-05-19T03:54:12.336Z,14.51
2019-05-19T03:55:12.372Z,14.59
2019-05-19T03:56:12.405Z,14.55
2019-05-19T03:57:12.439Z,14.73
2019-05-19T03:58:12.478Z,14.82
2019-05-19T03:59:12.514Z,14.89
2019-05-19T04:00:12.556Z,15.08
2019-05-19T04:01:12.583Z,15.15
2019-05-19T04:02:12.614Z,15.25
2019-05-19T04:03:12.657Z,15.36
2019-05-19T04:04:12.685Z,15.48
2019-05-19T04:05:12.725Z,15.52
2019-05-19T04:06:12.755Z,15.54
2019-05-19T04:07:12.791Z,15.66
2019-05-19T04:08:12.826Z,15.69
2019-05-19T04:09:12.869Z,15.67
2019-05-19T04:10:12.897Z,15.73
2019-05-19T04:11:12.932Z,15.80
2019-05-19T04:12:12.970Z,15.75
2019-05-19T04:13:13.006Z,15.73
2019-05-19T04:14:13.039Z,15.75
2019-05-19T04:15:13.079Z,15.65
2019-05-19T04:16:13.109Z,15.65
2019-05-19T04:17:13.148Z,15.59
2019-05-19T04:18:13.184Z,15.65
2019-05-19T04:19:13.223Z,15.70
2019-05-19T04:20:13.260Z,15.76
2019-05-19T04:21:13.288Z,15.63
2019-05-19T04:22:13.325Z,15.73
2019-05-19T04:23:13.362Z,15.88
2019-05-19T04:24:13.399Z,15.84
2019-05-19T04:25:13.433Z,15.88
2019-05-19T04:26:13.466Z,15.96
2019-05-19T04:27:13.507Z,16.00
2019-05-19T04:28:13.544Z,16.17
2019-05-19T04:29:13.581Z,16.31
2019-05-19T04:30:13.627Z,16.46
2019-05-19T04:31:13.648Z,16.44
2019-05-19T04:32:13.687Z,16.66
2019-05-19T04:33:13.727Z,16.82
2019-05-19T04:34:13.766Z,16.99
2019-05-19T04:35:13.796Z,17.22
2019-05-19T04:36:13.834Z,17.30
2019-05-19T04:37:13.869Z,17.54
2019-05-19T04:38:13.906Z,17.79
2019-05-19T04:39:13.945Z,18.24
2019-05-19T04:40:13.998Z,18.43
2019-05-19T04:41:14.045Z,18.96
2019-05-19T04:42:14.055Z,19.26
2019-05-19T04:43:14.095Z,19.32
2019-05-19T04:44:14.139Z,19.11
2019-05-19T04:45:14.172Z,18.86
2019-05-19T04:46:14.207Z,18.88
2019-05-19T04:47:14.248Z,18.78
2019-05-19T04:48:14.286Z,18.67
2019-05-19T04:49:14.331Z,18.68
2019-05-19T04:50:14.371Z,18.26
2019-05-19T04:51:14.405Z,18.33
2019-05-19T04:52:14.465Z,18.39
2019-05-19T04:53:14.488Z,18.24
2019-05-19T04:54:14.526Z,18.15
2019-05-19T04:55:14.564Z,17.86
2019-05-19T04:56:14.602Z,17.93
2019-05-19T04:57:14.642Z,17.71
2019-05-19T04:58:14.681Z,17.93
2019-05-19T04:59:14.720Z,18.09
2019-05-19T05:00:14.764Z,18.85
2019-05-19T05:01:14.803Z,19.08
2019-05-19T05:02:14.843Z,18.92
2019-05-19T05:03:14.882Z,19.22
2019-05-19T05:04:14.920Z,19.12
2019-05-19T05:05:14.963Z,18.70
2019-05-19T05:06:15.000Z,18.31
2019-05-19T05:07:15.039Z,17.86
2019-05-19T05:08:28.511Z,17.75
2019-05-19T05:09:15.131Z,17.57
2019-05-19T05:10:15.164Z,17.37
2019-05-19T05:11:15.200Z,17.10
2019-05-19T05:12:15.243Z,17.19
2019-05-19T05:13:15.287Z,17.44
2019-05-19T05:14:15.321Z,17.38
2019-05-19T05:15:15.363Z,17.82
2019-05-19T05:16:15.403Z,18.08
2019-05-19T05:17:15.443Z,18.36
2019-05-19T05:18:15.482Z,18.92
2019-05-19T05:19:15.522Z,19.30
2019-05-19T05:20:15.564Z,19.09
2019-05-19T05:21:15.603Z,19.19
2019-05-19T05:22:22.240Z,18.96
2019-05-19T05:23:15.683Z,19.24
2019-05-19T05:24:15.728Z,19.47
2019-05-19T05:25:15.768Z,19.38
2019-05-19T05:26:15.808Z,19.59
2019-05-19T05:27:15.849Z,19.77
2019-05-19T05:28:15.891Z,19.93
2019-05-19T05:29:15.930Z,20.07
2019-05-19T05:30:15.975Z,20.32
2019-05-19T05:31:16.013Z,20.18
2019-05-19T05:32:16.055Z,20.03
2019-05-19T05:33:16.098Z,19.89
2019-05-19T05:34:16.138Z,19.75
2019-05-19T05:35:16.181Z,19.72
2019-05-19T05:36:16.225Z,19.78
2019-05-19T05:37:16.266Z,20.03
2019-05-19T05:38:16.305Z,19.70
2019-05-19T05:39:16.347Z,20.00
2019-05-19T05:40:16.389Z,20.21
2019-05-19T05:41:16.432Z,20.70
2019-05-19T05:42:16.477Z,20.71
2019-05-19T05:43:16.519Z,21.00
2019-05-19T05:44:16.558Z,21.30
2019-05-19T05:45:16.601Z,20.80
2019-05-19T05:46:16.645Z,20.59
2019-05-19T05:47:16.689Z,20.66
2019-05-19T05:48:16.738Z,21.15
2019-05-19T05:49:16.772Z,21.38
2019-05-19T05:50:16.817Z,21.80
2019-05-19T05:51:16.858Z,22.19
2019-05-19T05:52:16.918Z,22.19
2019-05-19T05:53:16.946Z,22.19
2019-05-19T05:54:16.987Z,22.55
2019-05-19T05:55:17.038Z,22.18
2019-05-19T05:56:17.075Z,22.53
2019-05-19T05:57:17.119Z,22.19
2019-05-19T05:58:17.188Z,22.22
2019-05-19T05:59:17.210Z,22.30
2019-05-19T06:00:17.251Z,22.07
2019-05-19T06:01:17.294Z,22.34
2019-05-19T06:02:17.339Z,22.36
2019-05-19T06:03:17.383Z,22.65
2019-05-19T06:04:17.428Z,22.22
2019-05-19T06:05:17.517Z,22.31
2019-05-19T06:06:17.520Z,22.43
2019-05-19T06:07:17.561Z,22.21
2019-05-19T06:08:17.605Z,22.14
2019-05-19T06:09:17.648Z,22.44
2019-05-19T06:10:17.692Z,22.40
2019-05-19T06:11:17.737Z,22.01
2019-05-19T06:12:17.781Z,22.10
2019-05-19T06:13:17.827Z,21.74
2019-05-19T06:14:17.871Z,21.60
2019-05-19T06:15:17.915Z,21.43
2019-05-19T06:16:17.964Z,21.43
2019-05-19T06:17:18.006Z,21.43
2019-05-19T06:18:18.050Z,21.80
2019-05-19T06:19:18.097Z,22.30
2019-05-19T06:20:18.143Z,22.06
2019-05-19T06:21:18.185Z,21.78
2019-05-19T06:22:18.236Z,21.91
2019-05-19T06:23:18.278Z,22.68
2019-05-19T06:24:18.321Z,22.84
2019-05-19T06:25:18.372Z,22.89
2019-05-19T06:26:18.426Z,22.95
2019-05-19T06:27:18.456Z,22.77
2019-05-19T06:28:18.505Z,23.01
2019-05-19T06:29:18.548Z,22.83
2019-05-19T06:30:18.594Z,22.91
2019-05-19T06:31:18.643Z,22.77
2019-05-19T06:32:18.684Z,22.63
2019-05-19T06:33:18.734Z,22.78
2019-05-19T06:34:18.774Z,23.32
2019-05-19T06:35:18.829Z,23.16
2019-05-19T06:36:18.867Z,23.01
2019-05-19T06:37:18.912Z,22.98
2019-05-19T06:38:18.957Z,22.47
2019-05-19T06:39:19.006Z,22.16
2019-05-19T06:40:19.053Z,22.70
2019-05-19T06:41:19.097Z,22.99
2019-05-19T06:42:19.142Z,22.34
2019-05-19T06:43:19.191Z,22.59
2019-05-19T06:44:19.236Z,22.68
2019-05-19T06:45:19.287Z,22.31
2019-05-19T06:46:19.328Z,22.26
2019-05-19T06:47:19.374Z,22.62
2019-05-19T06:48:19.419Z,22.15
2019-05-19T06:49:19.469Z,22.03
2019-05-19T06:50:19.516Z,22.34
2019-05-19T06:51:19.557Z,22.93
2019-05-19T06:52:19.608Z,22.92
2019-05-19T06:53:19.650Z,23.40
2019-05-19T06:54:19.694Z,22.59
2019-05-19T06:55:19.748Z,23.06
2019-05-19T06:56:19.788Z,22.98
2019-05-19T06:57:19.879Z,22.51
2019-05-19T06:58:19.880Z,22.70
2019-05-19T06:59:19.931Z,23.02
2019-05-19T07:00:19.975Z,22.98
2019-05-19T07:01:20.021Z,22.65
2019-05-19T07:02:20.097Z,22.41
2019-05-19T07:03:20.118Z,22.14
2019-05-19T07:04:20.163Z,22.33
2019-05-19T07:05:20.207Z,22.36
2019-05-19T07:06:20.254Z,22.41
2019-05-19T07:07:20.302Z,22.38
2019-05-19T07:08:20.349Z,22.31
2019-05-19T07:09:20.396Z,22.16
2019-05-19T07:10:20.446Z,22.51
2019-05-19T07:11:20.492Z,22.74
2019-05-19T07:12:20.538Z,22.52
2019-05-19T07:13:20.587Z,21.80
2019-05-19T07:14:20.629Z,21.62
2019-05-19T07:15:20.677Z,21.70
2019-05-19T07:16:20.738Z,22.10
2019-05-19T07:17:20.771Z,21.80
2019-05-19T07:18:20.817Z,22.37
2019-05-19T07:19:20.863Z,22.67
2019-05-19T07:20:20.910Z,22.49
2019-05-19T07:21:20.964Z,22.63
2019-05-19T07:22:21.006Z,22.28
2019-05-19T07:23:28.324Z,22.30
2019-05-19T07:24:21.099Z,22.19
2019-05-19T07:25:21.149Z,21.89
2019-05-19T07:26:21.193Z,22.19
2019-05-19T07:27:21.239Z,22.31
2019-05-19T07:28:21.287Z,22.22
2019-05-19T07:29:21.334Z,22.37
2019-05-19T07:30:21.384Z,22.46
2019-05-19T07:31:21.429Z,22.53
2019-05-19T07:32:21.476Z,22.26
2019-05-19T07:33:21.524Z,21.59
2019-05-19T07:34:21.580Z,21.41
2019-05-19T07:35:21.616Z,22.01
2019-05-19T07:36:21.663Z,22.10
2019-05-19T07:37:21.710Z,22.18
2019-05-19T07:38:21.758Z,22.70
2019-05-19T07:39:21.804Z,22.23
2019-05-19T07:40:21.851Z,21.70
2019-05-19T07:41:21.900Z,22.34
2019-05-19T07:42:21.952Z,22.56
2019-05-19T07:43:22.015Z,22.76
2019-05-19T07:44:22.044Z,22.78
2019-05-19T07:45:22.090Z,22.53
2019-05-19T07:46:22.135Z,22.99
2019-05-19T07:47:22.181Z,22.99
2019-05-19T07:48:22.229Z,23.48
2019-05-19T07:49:22.276Z,23.66
2019-05-19T07:50:22.323Z,23.25
2019-05-19T07:51:22.371Z,22.80
2019-05-19T07:52:22.419Z,23.08
2019-05-19T07:53:22.467Z,23.55
2019-05-19T07:54:22.514Z,23.11
2019-05-19T07:55:22.564Z,23.34
2019-05-19T07:56:22.611Z,22.83
2019-05-19T07:57:22.704Z,22.88
2019-05-19T07:58:22.707Z,23.33
2019-05-19T07:59:22.817Z,23.62
2019-05-19T08:00:22.802Z,23.96
2019-05-19T08:01:22.855Z,24.19
2019-05-19T08:02:22.982Z,23.86
2019-05-19T08:03:22.949Z,23.74
2019-05-19T08:04:22.997Z,23.84
2019-05-19T08:05:23.048Z,22.89
2019-05-19T08:06:23.092Z,22.73
2019-05-19T08:07:23.142Z,23.02
2019-05-19T08:08:23.190Z,23.81
2019-05-19T08:09:23.238Z,24.04
2019-05-19T08:10:23.287Z,24.06
2019-05-19T08:11:23.364Z,24.28
2019-05-19T08:12:23.386Z,24.75
2019-05-19T08:13:23.434Z,24.03
2019-05-19T08:14:23.481Z,23.84
2019-05-19T08:15:23.532Z,23.88
2019-05-19T08:16:23.810Z,23.92
2019-05-19T08:17:25.853Z,24.46
2019-05-19T08:18:23.681Z,24.36
2019-05-19T08:19:23.728Z,24.11
2019-05-19T08:20:23.871Z,23.95
2019-05-19T08:21:23.825Z,24.01
2019-05-19T08:22:23.875Z,24.03
2019-05-19T08:23:23.925Z,24.01
2019-05-19T08:24:24.013Z,24.13
2019-05-19T08:25:24.044Z,24.44
2019-05-19T08:26:24.078Z,24.53
2019-05-19T08:27:24.122Z,24.24
2019-05-19T08:28:24.173Z,24.77
2019-05-19T08:29:24.279Z,24.92
2019-05-19T08:30:24.272Z,25.30
2019-05-19T08:31:24.325Z,24.71
2019-05-19T08:32:24.389Z,24.48
2019-05-19T08:33:24.437Z,24.51
2019-05-19T08:34:24.474Z,24.46
2019-05-19T08:35:24.531Z,24.01
2019-05-19T08:36:24.674Z,23.73
2019-05-19T08:37:24.639Z,23.69
2019-05-19T08:38:24.672Z,23.96
2019-05-19T08:39:24.726Z,24.16
2019-05-19T08:40:24.782Z,24.09
2019-05-19T08:41:24.825Z,24.53
2019-05-19T08:42:24.892Z,24.29
2019-05-19T08:43:24.922Z,24.68
2019-05-19T08:44:24.981Z,24.74
2019-05-19T08:45:25.024Z,23.47
2019-05-19T08:46:25.074Z,23.14
2019-05-19T08:47:25.127Z,23.82
2019-05-19T08:48:25.174Z,24.59
2019-05-19T08:49:25.323Z,25.30
2019-05-19T08:50:25.274Z,25.07
2019-05-19T08:51:25.324Z,24.21
2019-05-19T08:52:25.376Z,25.01
2019-05-19T08:53:25.424Z,25.40
2019-05-19T08:54:25.474Z,25.62
2019-05-19T08:55:25.529Z,24.92
2019-05-19T08:56:25.576Z,25.09
2019-05-19T08:57:25.632Z,24.77
2019-05-19T08:58:25.675Z,24.61
2019-05-19T08:59:25.733Z,24.74
2019-05-19T09:00:25.776Z,24.53
2019-05-19T09:01:25.826Z,24.63
2019-05-19T09:02:25.877Z,23.84
2019-05-19T09:03:25.929Z,23.69
2019-05-19T09:04:25.982Z,23.73
2019-05-19T09:05:26.028Z,23.44
2019-05-19T09:06:26.077Z,24.10
2019-05-19T09:07:26.132Z,24.03
2019-05-19T09:08:26.184Z,24.36
2019-05-19T09:09:26.230Z,24.07
2019-05-19T09:10:26.283Z,24.55
2019-05-19T09:11:26.339Z,24.97
2019-05-19T09:12:26.387Z,25.25
2019-05-19T09:13:26.432Z,25.01
2019-05-19T09:14:26.481Z,25.03
2019-05-19T09:15:26.534Z,24.89
2019-05-19T09:16:26.586Z,24.94
2019-05-19T09:17:26.635Z,24.78
2019-05-19T09:18:26.682Z,24.46
2019-05-19T09:19:26.732Z,24.69
2019-05-19T09:20:26.784Z,24.92
2019-05-19T09:21:26.840Z,24.13
2019-05-19T09:22:26.885Z,23.47
2019-05-19T09:23:26.934Z,23.63
2019-05-19T09:24:30.368Z,23.44
2019-05-19T09:25:27.039Z,23.86
2019-05-19T09:26:27.086Z,23.96
2019-05-19T09:27:27.141Z,24.10
2019-05-19T09:28:27.188Z,24.34
2019-05-19T09:29:27.236Z,24.04
2019-05-19T09:30:27.291Z,24.47
2019-05-19T09:31:27.341Z,24.19
2019-05-19T09:32:27.386Z,23.74
2019-05-19T09:33:27.438Z,24.25
2019-05-19T09:34:27.491Z,24.21
2019-05-19T09:35:27.540Z,24.03
2019-05-19T09:36:27.587Z,24.31
2019-05-19T09:37:27.639Z,24.19
2019-05-19T09:38:27.690Z,24.14
2019-05-19T09:39:27.743Z,23.74
2019-05-19T09:40:27.788Z,23.70
2019-05-19T09:41:27.837Z,23.73
2019-05-19T09:42:27.889Z,23.21
2019-05-19T09:43:27.935Z,23.02
2019-05-19T09:44:27.990Z,24.00
2019-05-19T09:45:28.036Z,24.18
2019-05-19T09:46:28.086Z,24.48
2019-05-19T09:47:28.137Z,24.81
2019-05-19T09:48:28.185Z,24.74
2019-05-19T09:49:28.234Z,23.96
2019-05-19T09:50:28.284Z,24.11
2019-05-19T09:51:28.336Z,23.86
2019-05-19T09:52:28.390Z,24.14
2019-05-19T09:53:28.434Z,24.00
2019-05-19T09:54:28.482Z,24.51
2019-05-19T09:55:28.532Z,24.71
2019-05-19T09:56:28.584Z,24.65
2019-05-19T09:57:28.636Z,24.25
2019-05-19T09:58:28.683Z,24.53
2019-05-19T09:59:28.730Z,24.92
2019-05-19T10:00:28.785Z,25.62
2019-05-19T10:01:28.837Z,26.23
2019-05-19T10:02:28.879Z,26.36
2019-05-19T10:03:28.929Z,26.27
2019-05-19T10:04:28.978Z,26.19
2019-05-19T10:05:29.029Z,26.30
2019-05-19T10:06:29.080Z,26.55
2019-05-19T10:07:29.132Z,26.68
2019-05-19T10:08:29.180Z,25.95
2019-05-19T10:09:29.243Z,25.96
2019-05-19T10:10:29.281Z,25.71
2019-05-19T10:11:29.344Z,26.08
2019-05-19T10:12:29.386Z,26.48
2019-05-19T10:13:29.433Z,26.49
2019-05-19T10:14:29.483Z,26.33
2019-05-19T10:15:29.537Z,25.76
2019-05-19T10:16:29.588Z,26.42
2019-05-19T10:17:29.641Z,27.25
2019-05-19T10:18:29.688Z,26.18
2019-05-19T10:19:29.741Z,26.34
2019-05-19T10:20:29.790Z,26.67
2019-05-19T10:21:29.850Z,25.37
2019-05-19T10:22:29.893Z,25.30
2019-05-19T10:23:29.947Z,25.39
2019-05-19T10:24:29.997Z,25.04
2019-05-19T10:25:30.048Z,25.30
2019-05-19T10:26:30.100Z,25.62
2019-05-19T10:27:30.150Z,25.62
2019-05-19T10:28:30.205Z,25.24
2019-05-19T10:29:30.253Z,24.69
2019-05-19T10:30:30.304Z,25.44
2019-05-19T10:31:30.355Z,26.10
2019-05-19T10:32:30.406Z,26.73
2019-05-19T10:33:30.458Z,25.30
2019-05-19T10:34:30.508Z,25.71
2019-05-19T10:35:30.558Z,25.37
2019-05-19T10:36:30.610Z,25.86
2019-05-19T10:37:30.660Z,25.78
2019-05-19T10:38:30.714Z,26.08
2019-05-19T10:39:30.764Z,26.36
2019-05-19T10:40:30.818Z,27.05
2019-05-19T10:41:30.866Z,26.27
2019-05-19T10:42:30.916Z,25.74
2019-05-19T10:43:30.968Z,24.84
2019-05-19T10:44:31.041Z,24.34
2019-05-19T10:45:31.073Z,24.11
2019-05-19T10:46:31.151Z,23.88
2019-05-19T10:47:31.173Z,23.88
2019-05-19T10:48:31.243Z,24.03
2019-05-19T10:49:31.273Z,24.13
2019-05-19T10:50:31.323Z,24.22
2019-05-19T10:51:31.374Z,24.13
2019-05-19T10:52:31.425Z,24.77
2019-05-19T10:53:31.474Z,24.61
2019-05-19T10:54:31.527Z,25.18
2019-05-19T10:55:36.499Z,25.34
2019-05-19T10:56:31.627Z,25.48
2019-05-19T10:57:31.675Z,26.01
2019-05-19T10:58:31.728Z,26.48
2019-05-19T10:59:31.775Z,25.93
2019-05-19T11:00:31.829Z,25.91
2019-05-19T11:01:31.876Z,26.33
2019-05-19T11:02:31.927Z,25.95
2019-05-19T11:03:31.978Z,25.36
2019-05-19T11:04:32.028Z,25.58
2019-05-19T11:05:32.079Z,25.68
2019-05-19T11:06:32.132Z,25.67
2019-05-19T11:07:32.181Z,25.68
2019-05-19T11:08:32.231Z,25.68
2019-05-19T11:09:32.282Z,25.81
2019-05-19T11:10:32.345Z,26.27
2019-05-19T11:11:32.384Z,26.52
2019-05-19T11:12:32.435Z,27.13
2019-05-19T11:13:32.486Z,27.00
2019-05-19T11:14:32.534Z,26.60
2019-05-19T11:15:32.599Z,26.34
2019-05-19T11:16:32.634Z,26.24
2019-05-19T11:17:32.684Z,26.59
2019-05-19T11:18:32.742Z,26.88
2019-05-19T11:19:32.786Z,26.89
2019-05-19T11:20:32.838Z,26.85
2019-05-19T11:21:32.888Z,26.71
2019-05-19T11:22:32.985Z,26.82
2019-05-19T11:23:32.990Z,27.20
2019-05-19T11:24:33.043Z,27.11
2019-05-19T11:25:34.423Z,26.96
2019-05-19T11:26:33.146Z,26.49
2019-05-19T11:27:33.196Z,27.08
2019-05-19T11:28:33.246Z,27.26
2019-05-19T11:29:33.300Z,27.71
2019-05-19T11:30:33.351Z,27.20
2019-05-19T11:31:33.400Z,26.37
2019-05-19T11:32:33.455Z,27.13
2019-05-19T11:33:33.509Z,27.20
2019-05-19T11:34:33.558Z,27.03
2019-05-19T11:35:33.617Z,26.85
2019-05-19T11:36:33.664Z,26.53
2019-05-19T11:37:33.715Z,26.78
2019-05-19T11:38:33.762Z,26.82
2019-05-19T11:39:33.814Z,26.70
2019-05-19T11:40:33.866Z,26.79
2019-05-19T11:41:33.920Z,26.88
2019-05-19T11:42:33.977Z,26.56
2019-05-19T11:43:34.022Z,26.37
2019-05-19T11:44:34.094Z,26.45
2019-05-19T11:45:34.129Z,26.33
2019-05-19T11:46:34.195Z,25.89
2019-05-19T11:47:34.239Z,25.98
2019-05-19T11:48:34.284Z,26.07
2019-05-19T11:49:34.335Z,26.23
2019-05-19T11:50:34.390Z,26.27
2019-05-19T11:51:34.438Z,25.58
2019-05-19T11:52:34.495Z,25.58
2019-05-19T11:53:34.544Z,25.56
2019-05-19T11:54:34.594Z,25.74
2019-05-19T11:55:34.654Z,25.70
2019-05-19T11:56:34.697Z,26.29
2019-05-19T11:57:34.749Z,26.10
2019-05-19T11:58:34.799Z,26.73
2019-05-19T11:59:34.852Z,27.10
2019-05-19T12:00:34.904Z,27.13
2019-05-19T12:01:34.958Z,27.25
2019-05-19T12:02:35.037Z,27.11
2019-05-19T12:03:35.081Z,27.18
2019-05-19T12:04:35.112Z,27.25
2019-05-19T12:05:35.212Z,27.23
2019-05-19T12:06:39.288Z,28.13
2019-05-19T12:07:35.273Z,28.59
2019-05-19T12:08:35.327Z,28.13
2019-05-19T12:09:35.375Z,28.28
2019-05-19T12:10:35.426Z,27.58
2019-05-19T12:11:35.480Z,27.97
2019-05-19T12:12:35.532Z,27.34
2019-05-19T12:13:35.584Z,27.58
2019-05-19T12:14:35.644Z,28.16
2019-05-19T12:15:35.695Z,27.88
2019-05-19T12:16:35.743Z,27.15
2019-05-19T12:17:35.797Z,27.35
2019-05-19T12:18:35.846Z,27.94
2019-05-19T12:19:35.899Z,28.01
2019-05-19T12:20:35.971Z,27.72
2019-05-19T12:21:36.007Z,27.61
2019-05-19T12:22:36.060Z,27.15
2019-05-19T12:23:36.111Z,25.95
2019-05-19T12:24:36.177Z,26.63
2019-05-19T12:25:36.220Z,26.59
2019-05-19T12:26:36.290Z,27.15
2019-05-19T12:27:36.329Z,27.29
2019-05-19T12:28:36.379Z,25.63
2019-05-19T12:29:36.427Z,25.91
2019-05-19T12:30:36.483Z,25.68
2019-05-19T12:31:36.535Z,25.86
2019-05-19T12:32:36.638Z,26.08
2019-05-19T12:33:49.632Z,25.40
2019-05-19T12:34:36.689Z,24.71
2019-05-19T12:35:36.749Z,24.61
2019-05-19T12:36:36.794Z,24.01
2019-05-19T12:37:36.848Z,24.13
2019-05-19T12:38:36.900Z,24.89
2019-05-19T12:39:36.949Z,25.14
2019-05-19T12:40:37.001Z,24.44
2019-05-19T12:41:37.056Z,23.99
2019-05-19T12:42:37.112Z,24.29
2019-05-19T12:43:37.157Z,24.56
2019-05-19T12:44:37.210Z,25.41
2019-05-19T12:45:37.263Z,24.89
2019-05-19T12:46:37.308Z,25.06
2019-05-19T12:47:37.361Z,24.47
2019-05-19T12:48:37.412Z,24.11
2019-05-19T12:49:37.463Z,24.47
2019-05-19T12:50:37.515Z,25.06
2019-05-19T12:51:37.562Z,25.63
2019-05-19T12:52:37.614Z,25.46